Time;durP1;ratioP1;P1;durP2;ratioP2;P2;SDS_P1;SDS_P2;PMS_P1;PMS_P2;Temp;Humidity;BMP_temperature;BMP_pressure;BME280_temperature;BME280_humidity;BME280_pressure;Samples;Min_cycle;Max_cycle;Signal;HPM_P1;HPM_P2
2022/05/17 00:01:57;;;;;;;5.25;3.20;;;17.50;91.40;;;;;;5051840;28;20017;-89
2022/05/17 00:04:22;;;;;;;3.35;2.95;;;17.50;91.20;;;;;;5053170;28;20033;-89
2022/05/17 00:06:48;;;;;;;6.57;3.35;;;17.50;91.20;;;;;;5055214;28;20050;-90
2022/05/17 00:09:16;;;;;;;4.82;2.88;;;17.40;91.20;;;;;;5053460;28;20025;-88
2022/05/17 00:11:44;;;;;;;4.03;3.13;;;17.40;91.20;;;;;;5043563;28;20065;-89
2022/05/17 00:14:11;;;;;;;5.82;3.33;;;17.30;91.30;;;;;;5049142;28;20115;-89
2022/05/17 00:16:36;;;;;;;5.18;3.20;;;17.30;91.50;;;;;;5050943;28;20029;-90
2022/05/17 00:19:02;;;;;;;9.90;3.75;;;17.30;91.60;;;;;;5070695;28;20078;-89
2022/05/17 00:21:28;;;;;;;6.53;2.78;;;17.20;91.60;;;;;;5056821;28;20382;-89
2022/05/17 00:23:54;;;;;;;8.85;3.45;;;17.20;91.70;;;;;;5073584;28;20074;-88
2022/05/17 00:26:21;;;;;;;5.90;3.50;;;17.20;91.70;;;;;;5056986;28;20078;-88
2022/05/17 00:28:47;;;;;;;6.35;3.08;;;17.20;91.80;;;;;;5055282;28;20078;-88
2022/05/17 00:31:12;;;;;;;5.20;3.95;;;17.20;91.90;;;;;;5077012;28;20017;-87
2022/05/17 00:33:38;;;;;;;6.03;3.33;;;17.10;92.00;;;;;;5077176;28;20017;-88
2022/05/17 00:36:04;;;;;;;4.28;3.70;;;17.10;92.20;;;;;;5073488;28;20031;-88
2022/05/17 00:38:30;;;;;;;6.32;3.58;;;17.10;92.40;;;;;;5054140;28;20039;-88
2022/05/17 00:40:56;;;;;;;7.20;4.13;;;17.00;92.50;;;;;;5055854;28;20021;-89
2022/05/17 00:46:17;;;;;;;5.22;3.60;;;17.00;92.80;;;;;;5068708;28;20035;-89
2022/05/17 00:48:43;;;;;;;5.95;3.67;;;17.00;92.70;;;;;;5054359;28;20043;-89
2022/05/17 00:51:09;;;;;;;4.10;3.70;;;17.00;92.80;;;;;;5069297;28;20029;-89
2022/05/17 00:53:36;;;;;;;5.80;3.55;;;17.00;92.80;;;;;;5055308;28;20030;-89
2022/05/17 00:56:10;;;;;;;7.28;3.72;;;17.00;92.80;;;;;;5040694;28;20025;-90
2022/05/17 00:58:50;;;;;;;6.68;3.75;;;16.90;92.90;;;;;;5063434;28;20778;-89
2022/05/17 01:01:22;;;;;;;6.32;3.33;;;16.90;93.00;;;;;;5074595;28;20123;-88
2022/05/17 01:04:06;;;;;;;6.63;4.00;;;17.00;93.00;;;;;;5062372;28;20020;-88
2022/05/17 01:06:42;;;;;;;7.20;3.70;;;16.90;93.00;;;;;;5070730;28;20047;-89
2022/05/17 01:09:09;;;;;;;7.18;3.55;;;17.00;93.10;;;;;;5053194;28;20027;-89
2022/05/17 01:11:35;;;;;;;5.80;3.80;;;17.00;93.10;;;;;;5057007;28;20025;-87
2022/05/17 01:16:45;;;;;;;6.70;3.58;;;16.90;93.20;;;;;;5065774;28;20035;-89
2022/05/17 01:19:12;;;;;;;5.30;3.60;;;16.90;93.30;;;;;;5071873;28;20036;-89
2022/05/17 01:21:39;;;;;;;5.28;4.10;;;16.90;93.50;;;;;;5057472;28;20602;-89
2022/05/17 01:24:05;;;;;;;8.45;3.72;;;16.90;93.50;;;;;;5057364;28;20028;-90
2022/05/17 01:26:35;;;;;;;4.80;3.42;;;16.90;93.60;;;;;;5054432;28;20027;-89
2022/05/17 01:29:05;;;;;;;5.78;3.90;;;16.90;93.70;;;;;;5057286;28;20031;-89
2022/05/17 01:31:31;;;;;;;6.15;4.13;;;16.90;93.70;;;;;;5057780;28;20131;-90
2022/05/17 01:33:57;;;;;;;6.95;3.92;;;16.90;93.70;;;;;;5054387;28;20024;-89
2022/05/17 01:36:23;;;;;;;4.57;3.83;;;16.90;93.80;;;;;;5056269;28;20039;-89
2022/05/17 01:38:51;;;;;;;9.25;4.00;;;16.90;93.90;;;;;;5057056;28;20088;-90
2022/05/17 01:41:18;;;;;;;8.70;4.07;;;16.90;94.00;;;;;;5053925;28;20029;-89
2022/05/17 01:43:44;;;;;;;6.85;4.22;;;16.90;94.10;;;;;;5065765;28;20480;-89
2022/05/17 01:46:10;;;;;;;6.20;3.90;;;16.90;94.20;;;;;;5049157;28;20024;-88
2022/05/17 01:48:38;;;;;;;5.85;3.80;;;16.90;94.40;;;;;;5054669;28;20489;-89
2022/05/17 01:51:08;;;;;;;8.80;4.30;;;16.80;94.40;;;;;;5056599;28;20038;-89
2022/05/17 01:53:34;;;;;;;7.75;4.10;;;16.80;94.70;;;;;;5054728;28;20078;-89
2022/05/17 01:56:08;;;;;;;6.28;4.15;;;16.80;94.70;;;;;;5053784;28;20105;-89
2022/05/17 01:58:34;;;;;;;7.95;4.10;;;16.70;94.90;;;;;;5073065;28;20449;-90
2022/05/17 02:00:59;;;;;;;6.07;3.80;;;16.70;94.90;;;;;;5053968;28;20012;-89
2022/05/17 02:03:25;;;;;;;5.95;4.25;;;16.70;95.00;;;;;;5077924;28;20017;-88
2022/05/17 02:05:51;;;;;;;7.63;4.43;;;16.70;95.10;;;;;;5082136;28;20025;-87
2022/05/17 02:08:17;;;;;;;7.15;4.10;;;16.60;95.10;;;;;;5074502;28;20037;-88
2022/05/17 02:10:43;;;;;;;7.43;4.05;;;16.60;95.20;;;;;;5054245;28;20063;-89
2022/05/17 02:13:08;;;;;;;7.13;4.20;;;16.60;95.30;;;;;;5056512;28;20063;-90
2022/05/17 02:15:34;;;;;;;8.27;4.20;;;16.50;95.40;;;;;;5052146;28;20032;-88
2022/05/17 02:17:59;;;;;;;7.40;4.63;;;16.40;95.40;;;;;;5074205;28;20047;-90
2022/05/17 02:20:25;;;;;;;7.15;4.32;;;16.40;95.50;;;;;;5051518;28;20047;-89
2022/05/17 02:22:51;;;;;;;10.23;4.68;;;16.30;95.60;;;;;;5036965;28;20029;-88
2022/05/17 02:25:17;;;;;;;7.70;4.50;;;16.20;95.70;;;;;;5058449;28;20508;-89
2022/05/17 02:27:42;;;;;;;11.07;4.35;;;16.10;95.80;;;;;;5056202;28;20092;-89
2022/05/17 02:30:11;;;;;;;5.75;4.28;;;16.00;96.00;;;;;;5055915;28;20025;-89
2022/05/17 02:32:36;;;;;;;7.43;4.60;;;15.90;96.10;;;;;;5049929;28;20025;-89
2022/05/17 02:35:04;;;;;;;10.95;5.00;;;15.80;96.20;;;;;;5054590;28;20125;-89
2022/05/17 02:37:29;;;;;;;12.23;4.82;;;15.80;96.50;;;;;;5056069;28;20029;-89
2022/05/17 02:39:55;;;;;;;10.93;5.38;;;15.70;96.40;;;;;;5072275;28;20567;-89
2022/05/17 02:42:20;;;;;;;9.30;4.88;;;15.60;96.50;;;;;;5056331;28;20028;-89
2022/05/17 02:44:46;;;;;;;10.00;5.63;;;15.50;96.80;;;;;;5055173;28;20024;-89
2022/05/17 02:47:12;;;;;;;11.98;5.43;;;15.50;97.10;;;;;;5036988;28;20025;-89
2022/05/17 02:49:44;;;;;;;11.93;6.78;;;15.40;97.20;;;;;;5069392;28;20396;-89
2022/05/17 02:52:11;;;;;;;16.50;6.50;;;15.40;97.30;;;;;;5074263;28;20078;-91
2022/05/17 02:54:37;;;;;;;11.00;6.65;;;15.40;97.40;;;;;;5052249;28;20037;-91
2022/05/17 02:57:06;;;;;;;10.25;7.47;;;15.30;97.50;;;;;;5056301;28;20089;-90
2022/05/17 02:59:32;;;;;;;10.70;7.43;;;15.30;97.60;;;;;;5054265;28;20104;-89
2022/05/17 03:01:59;;;;;;;11.80;7.82;;;15.30;97.90;;;;;;5070541;28;20056;-89
2022/05/17 03:04:28;;;;;;;13.05;8.38;;;15.40;98.00;;;;;;5054152;28;20074;-88
2022/05/17 03:06:54;;;;;;;14.40;9.75;;;15.40;98.10;;;;;;5055278;28;20461;-89
2022/05/17 03:09:20;;;;;;;17.42;9.95;;;15.40;97.90;;;;;;5054695;28;20433;-90
2022/05/17 03:11:46;;;;;;;15.75;10.95;;;15.40;97.90;;;;;;5056165;28;20024;-90
2022/05/17 03:14:14;;;;;;;14.48;11.07;;;15.40;97.80;;;;;;5054985;28;20032;-88
2022/05/17 03:16:40;;;;;;;20.15;11.48;;;15.40;97.90;;;;;;5050343;28;20032;-89
2022/05/17 03:19:07;;;;;;;18.55;12.18;;;15.40;97.90;;;;;;5057348;28;20032;-89
2022/05/17 03:21:35;;;;;;;17.00;11.27;;;15.40;97.90;;;;;;5055547;28;20020;-88
2022/05/17 03:24:01;;;;;;;12.98;9.93;;;15.40;97.80;;;;;;5068649;28;20051;-88
2022/05/17 03:26:28;;;;;;;14.60;10.27;;;15.30;97.90;;;;;;5046977;28;20386;-90
2022/05/17 03:28:56;;;;;;;14.90;10.05;;;15.40;97.90;;;;;;5054418;28;20028;-88
2022/05/17 03:31:22;;;;;;;13.27;9.18;;;15.40;97.90;;;;;;5054937;28;20028;-89
2022/05/17 03:33:48;;;;;;;12.85;8.75;;;15.40;97.80;;;;;;5054604;28;20033;-89
2022/05/17 03:36:15;;;;;;;13.07;9.23;;;15.40;97.80;;;;;;5077868;28;20030;-89
2022/05/17 03:38:41;;;;;;;14.98;8.77;;;15.40;97.70;;;;;;5069294;28;20036;-88
2022/05/17 03:41:07;;;;;;;14.88;8.65;;;15.40;97.70;;;;;;5092329;28;20035;-88
2022/05/17 03:43:33;;;;;;;11.90;7.97;;;15.50;97.60;;;;;;5055325;28;20422;-88
2022/05/17 03:45:58;;;;;;;10.23;7.60;;;15.40;97.50;;;;;;5068624;28;20029;-89
2022/05/17 03:48:26;;;;;;;11.75;7.85;;;15.40;97.40;;;;;;5071960;28;20024;-90
2022/05/17 03:50:52;;;;;;;12.18;8.00;;;15.40;97.30;;;;;;5071293;28;20024;-89
2022/05/17 03:53:17;;;;;;;13.75;8.00;;;15.50;97.20;;;;;;5054439;28;20453;-88
2022/05/17 03:55:43;;;;;;;14.73;8.30;;;15.40;97.20;;;;;;5055406;28;20111;-89
2022/05/17 03:58:09;;;;;;;15.88;8.27;;;15.40;97.10;;;;;;5054373;28;20063;-88
2022/05/17 04:00:35;;;;;;;15.27;8.13;;;15.20;97.00;;;;;;5060847;28;20024;-89
2022/05/17 04:03:01;;;;;;;10.65;8.98;;;15.10;97.20;;;;;;5066667;28;20040;-89
2022/05/17 04:05:28;;;;;;;16.73;9.38;;;15.00;97.40;;;;;;5055095;28;20025;-89
2022/05/17 04:07:53;;;;;;;12.18;8.90;;;14.90;97.70;;;;;;5069373;28;20442;-89
2022/05/17 04:10:19;;;;;;;15.73;9.60;;;14.80;97.90;;;;;;5068660;28;20103;-89
2022/05/17 04:12:45;;;;;;;13.88;8.88;;;14.70;98.20;;;;;;5056840;28;20024;-89
2022/05/17 04:15:17;;;;;;;12.77;9.35;;;14.70;98.40;;;;;;5056413;28;20135;-90
2022/05/17 04:17:43;;;;;;;;;;;14.70;98.60;;;;;;5050287;28;20037;-89
2022/05/17 04:22:37;;;;;;;13.50;9.40;;;14.60;98.30;;;;;;5051421;28;20079;-89
2022/05/17 04:25:03;;;;;;;15.10;8.77;;;14.50;98.50;;;;;;5042076;28;20030;-88
2022/05/17 04:27:29;;;;;;;12.80;8.27;;;14.50;98.70;;;;;;5034961;28;20429;-88
2022/05/17 04:29:55;;;;;;;11.52;8.35;;;14.40;98.90;;;;;;5034635;28;20013;-88
2022/05/17 04:32:21;;;;;;;10.00;7.18;;;14.50;99.10;;;;;;5043518;28;20063;-89
2022/05/17 04:34:46;;;;;;;11.00;7.10;;;14.40;99.20;;;;;;5046498;28;20019;-89
2022/05/17 04:37:12;;;;;;;9.68;7.03;;;14.40;99.30;;;;;;5034778;28;20434;-89
2022/05/17 04:39:37;;;;;;;11.90;7.15;;;14.50;99.60;;;;;;5036331;28;20056;-89
2022/05/17 04:42:03;;;;;;;13.57;7.28;;;14.60;99.70;;;;;;5061818;28;20021;-89
2022/05/17 04:51:12;;;;;;;14.35;6.60;;;14.90;99.60;;;;;;5078119;28;20111;-90
2022/05/17 04:53:39;;;;;;;10.65;6.85;;;15.00;99.30;;;;;;5031317;28;20556;-90
2022/05/17 04:56:09;;;;;;;7.70;6.15;;;15.10;99.10;;;;;;5046992;28;20147;-90
2022/05/17 04:58:35;;;;;;;9.90;6.00;;;15.10;99.10;;;;;;5045161;28;20033;-91
2022/05/17 05:01:04;;;;;;;8.63;6.72;;;15.20;99.20;;;;;;5045145;28;20017;-91
2022/05/17 05:03:31;;;;;;;8.13;6.43;;;15.30;99.30;;;;;;5043218;28;20029;-90
2022/05/17 05:05:59;;;;;;;8.98;5.97;;;15.40;99.20;;;;;;5052925;28;20025;-90
2022/05/17 05:08:43;;;;;;;8.85;6.13;;;15.50;99.10;;;;;;5046997;28;20036;-90
2022/05/17 05:11:15;;;;;;;10.60;6.32;;;15.60;98.90;;;;;;5047886;28;20025;-91
2022/05/17 05:14:42;;;;;;;;;;;;;;;;;;;;;
2022/05/17 05:17:34;;;;;;;17.27;9.82;;;15.70;98.50;;;;;;5066826;28;20092;-92
2022/05/17 05:20:03;;;;;;;8.13;6.23;;;15.80;98.40;;;;;;5037956;28;20036;-90
2022/05/17 05:22:31;;;;;;;9.05;6.18;;;15.80;98.30;;;;;;5053458;28;20283;-93
2022/05/17 05:25:13;;;;;;;8.13;5.70;;;15.80;98.80;;;;;;5056064;28;20021;-92
2022/05/17 05:27:44;;;;;;;11.57;7.32;;;15.80;99.00;;;;;;5054483;28;20021;-92
2022/05/17 05:30:29;;;;;;;10.75;6.78;;;15.80;99.00;;;;;;5054780;28;20032;-92
2022/05/17 05:33:05;;;;;;;19.48;7.80;;;15.80;98.80;;;;;;5054820;28;20033;-91
2022/05/17 05:35:34;;;;;;;9.45;6.72;;;15.80;99.00;;;;;;5038191;28;20029;-91
2022/05/17 05:38:02;;;;;;;19.67;7.20;;;15.80;99.30;;;;;;5054807;28;20025;-91
2022/05/17 05:40:53;;;;;;;13.35;6.55;;;15.90;99.50;;;;;;5037894;28;20023;-92
2022/05/17 05:46:31;;;;;;;8.45;6.03;;;16.10;99.70;;;;;;5055779;28;20029;-91
2022/05/17 05:49:03;;;;;;;11.88;6.18;;;16.30;99.70;;;;;;5038215;28;20025;-91
2022/05/17 05:51:31;;;;;;;11.93;6.63;;;16.30;99.70;;;;;;5038504;28;20510;-91
2022/05/17 05:54:01;;;;;;;8.77;6.35;;;16.40;99.70;;;;;;5038497;28;20490;-92
2022/05/17 05:56:27;;;;;;;8.48;6.15;;;16.50;99.70;;;;;;5037966;28;20047;-91
2022/05/17 05:58:53;;;;;;;11.80;7.40;;;16.50;99.50;;;;;;5037192;28;20025;-92
2022/05/17 06:01:18;;;;;;;9.00;6.80;;;16.50;99.50;;;;;;5037705;28;20021;-90
2022/05/17 06:03:59;;;;;;;8.48;6.65;;;16.40;99.50;;;;;;5087989;28;20032;-94
2022/05/17 06:06:27;;;;;;;11.10;6.53;;;16.40;99.70;;;;;;5059260;28;20024;-92
2022/05/17 06:08:53;;;;;;;8.60;6.60;;;16.40;99.80;;;;;;5053105;28;20032;-91
2022/05/17 06:11:19;;;;;;;10.70;7.45;;;16.40;99.90;;;;;;5053651;28;20548;-91
2022/05/17 06:13:50;;;;;;;10.07;6.50;;;16.50;99.90;;;;;;5053266;28;20041;-91
2022/05/17 06:16:16;;;;;;;7.72;5.85;;;16.60;99.90;;;;;;5053595;28;20086;-90
2022/05/17 06:18:42;;;;;;;9.60;6.47;;;16.70;99.90;;;;;;5053163;28;20116;-91
2022/05/17 06:21:08;;;;;;;9.68;6.90;;;16.70;99.90;;;;;;5052960;28;20033;-91
2022/05/17 06:23:35;;;;;;;8.23;5.95;;;16.80;99.90;;;;;;5053347;28;20095;-90
2022/05/17 06:26:01;;;;;;;11.80;6.97;;;16.90;99.90;;;;;;5053228;28;20071;-90
2022/05/17 06:28:26;;;;;;;8.80;6.50;;;17.10;99.90;;;;;;5053094;28;20482;-90
2022/05/17 06:30:52;;;;;;;11.02;6.80;;;17.10;99.90;;;;;;5052852;28;20091;-90
2022/05/17 06:33:18;;;;;;;10.98;6.63;;;17.20;99.90;;;;;;5053407;28;20100;-90
2022/05/17 06:35:45;;;;;;;9.68;7.13;;;17.30;99.90;;;;;;5052656;28;20017;-90
2022/05/17 06:38:11;;;;;;;11.23;7.07;;;17.30;99.90;;;;;;5052250;28;20112;-90
2022/05/17 06:40:37;;;;;;;7.43;6.57;;;17.40;99.90;;;;;;5052561;28;20071;-90
2022/05/17 06:43:08;;;;;;;10.70;7.32;;;17.40;99.90;;;;;;5036092;28;20459;-91
2022/05/17 06:45:34;;;;;;;9.98;7.05;;;17.50;99.90;;;;;;5040343;28;20100;-91
2022/05/17 06:48:43;;;;;;;10.52;6.93;;;17.60;99.90;;;;;;5045825;28;20024;-91
2022/05/17 06:51:09;;;;;;;14.45;6.97;;;17.80;99.90;;;;;;5044212;28;20022;-90
2022/05/17 06:53:39;;;;;;;12.38;7.40;;;17.90;99.80;;;;;;5052262;28;20025;-90
2022/05/17 06:56:06;;;;;;;15.02;7.00;;;18.00;99.70;;;;;;5044498;28;20021;-91
2022/05/17 06:58:32;;;;;;;13.85;6.75;;;18.10;99.60;;;;;;5063545;28;20029;-90
2022/05/17 07:00:58;;;;;;;10.85;5.97;;;18.30;99.50;;;;;;5068031;28;20105;-91
2022/05/17 07:03:28;;;;;;;14.38;6.18;;;18.40;99.20;;;;;;5052114;28;20094;-92
2022/05/17 07:05:54;;;;;;;8.63;5.32;;;18.60;98.90;;;;;;5052206;28;20032;-90
2022/05/17 07:08:19;;;;;;;11.85;5.82;;;18.80;98.70;;;;;;5056835;28;20024;-90
2022/05/17 07:14:10;;;;;;;10.32;5.95;;;19.20;97.60;;;;;;5050559;28;20502;-90
2022/05/17 07:16:36;;;;;;;8.10;5.47;;;19.50;97.20;;;;;;5051188;28;20116;-91
2022/05/17 07:19:04;;;;;;;8.60;4.97;;;19.80;96.70;;;;;;5050262;28;20479;-91
2022/05/17 07:21:30;;;;;;;7.15;5.53;;;20.00;96.40;;;;;;5050731;28;20037;-91
2022/05/17 07:23:55;;;;;;;11.15;5.45;;;20.30;96.00;;;;;;5051374;28;20066;-91
2022/05/17 07:30:00;;;;;;;;;;;21.00;95.00;;;;;;5052380;22;20138;-92
2022/05/17 07:32:43;;;;;;;;;;;;;;;;;;;;;
2022/05/17 07:35:19;;;;;;;6.22;3.50;;;21.70;93.70;;;;;;5079118;28;20143;-93
2022/05/17 07:38:03;;;;;;;7.65;4.97;;;22.00;93.30;;;;;;5048754;28;20100;-92
2022/05/17 07:41:07;;;;;;;9.88;3.85;;;22.10;92.80;;;;;;5052118;28;20036;-92
2022/05/17 07:46:01;;;;;;;12.15;4.13;;;22.40;91.70;;;;;;5064073;28;20052;-88
2022/05/17 07:48:27;;;;;;;8.52;4.65;;;22.70;91.20;;;;;;5053925;28;20025;-86
2022/05/17 07:50:53;;;;;;;12.35;6.93;;;22.90;90.70;;;;;;5059483;28;20047;-89
2022/05/17 07:53:36;;;;;;;12.60;8.55;;;23.10;90.40;;;;;;5058784;28;20040;-88
2022/05/17 07:56:04;;;;;;;10.38;4.97;;;23.30;89.80;;;;;;5049351;28;20048;-88
2022/05/17 07:58:45;;;;;;;;;;;;;;;;;;;;;
2022/05/17 08:01:32;;;;;;;8.52;4.75;;;23.70;87.50;;;;;;5275134;22;20047;-94
2022/05/17 08:11:01;;;;;;;6.95;3.30;;;24.50;84.60;;;;;;5056141;28;20048;-93
2022/05/17 08:13:28;;;;;;;6.53;3.15;;;24.70;82.90;;;;;;5047053;28;20029;-93
2022/05/17 08:15:54;;;;;;;7.38;4.03;;;24.60;81.80;;;;;;5041292;28;20051;-92
2022/05/17 08:18:20;;;;;;;11.32;3.28;;;24.60;81.40;;;;;;5046021;28;20484;-92
2022/05/17 08:20:49;;;;;;;8.73;3.90;;;24.80;80.80;;;;;;5056597;28;20028;-92
2022/05/17 08:23:15;;;;;;;10.30;3.80;;;25.00;80.00;;;;;;5054435;28;20036;-92
2022/05/17 08:28:26;;;;;;;7.57;3.00;;;25.40;78.70;;;;;;5093109;28;20034;-92
2022/05/17 08:30:53;;;;;;;7.97;2.85;;;25.60;77.60;;;;;;5066233;28;20487;-92
2022/05/17 08:33:20;;;;;;;6.47;2.63;;;25.90;76.70;;;;;;5051499;28;20033;-91
2022/05/17 08:35:55;;;;;;;7.53;3.38;;;26.20;75.30;;;;;;5078869;28;20104;-93
2022/05/17 08:38:32;;;;;;;7.68;2.70;;;26.50;73.70;;;;;;5079565;28;20020;-93
2022/05/17 08:41:10;;;;;;;7.38;3.00;;;26.80;72.70;;;;;;5069283;28;20039;-93
2022/05/17 08:43:49;;;;;;;5.30;2.50;;;27.00;72.10;;;;;;5092883;28;20081;-92
2022/05/17 08:46:22;;;;;;;5.07;2.38;;;26.90;71.30;;;;;;5059225;28;20027;-93
2022/05/17 08:48:52;;;;;;;7.65;2.40;;;27.00;69.30;;;;;;5058268;28;20033;-90
2022/05/17 08:51:41;;;;;;;6.65;2.05;;;26.80;68.50;;;;;;5059176;28;20550;-92
2022/05/17 08:54:10;;;;;;;6.35;2.67;;;26.70;69.00;;;;;;5060104;28;20120;-92
2022/05/17 08:56:40;;;;;;;5.85;2.13;;;26.90;68.70;;;;;;5058773;28;20143;-92
2022/05/17 08:59:06;;;;;;;10.45;3.97;;;27.10;68.40;;;;;;5061341;28;20082;-92
2022/05/17 09:01:45;;;;;;;4.20;2.20;;;27.50;67.90;;;;;;5070240;28;20032;-93
2022/05/17 09:04:30;;;;;;;4.35;1.73;;;27.70;66.40;;;;;;5067302;28;20085;-93
2022/05/17 09:07:07;;;;;;;5.38;1.75;;;28.20;65.60;;;;;;5080304;28;20685;-93
2022/05/17 09:09:56;;;;;;;5.75;1.67;;;28.40;64.80;;;;;;5062771;28;20051;-91
2022/05/17 09:12:47;;;;;;;11.77;1.90;;;28.70;64.50;;;;;;5081472;28;20029;-89
2022/05/17 09:15:24;;;;;;;4.97;2.10;;;29.00;64.00;;;;;;5080662;28;20017;-89
2022/05/17 09:24:23;;;;;;;3.22;1.40;;;30.60;59.70;;;;;;5054029;28;20047;-88
2022/05/17 09:27:25;;;;;;;3.40;1.45;;;31.50;58.10;;;;;;5067799;28;20024;-89
2022/05/17 09:30:22;;;;;;;3.90;1.50;;;32.30;56.70;;;;;;5067673;28;20040;-90
2022/05/17 09:33:02;;;;;;;7.43;2.28;;;33.00;54.30;;;;;;5066303;28;20040;-90
2022/05/17 09:35:28;;;;;;;6.88;1.70;;;33.80;52.40;;;;;;5058588;28;20071;-90
2022/05/17 09:38:07;;;;;;;5.13;1.80;;;34.00;50.10;;;;;;5061063;28;20032;-88
2022/05/17 09:41:01;;;;;;;;;;;;;;;;;;;;;
2022/05/17 09:44:21;;;;;;;8.25;1.73;;;33.60;48.90;;;;;;5062665;28;20041;-90
2022/05/17 09:46:55;;;;;;;2.65;1.33;;;34.00;49.00;;;;;;5028636;28;20123;-90
2022/05/17 09:55:23;;;;;;;2.53;1.05;;;34.30;46.80;;;;;;5071212;28;20101;-89
2022/05/17 09:58:22;;;;;;;3.30;0.85;;;34.80;46.70;;;;;;5063491;28;20065;-90
2022/05/17 10:01:28;;;;;;;3.00;0.82;;;35.40;46.60;;;;;;5048935;28;20024;-92
2022/05/17 10:04:26;;;;;;;1.92;0.70;;;36.60;45.40;;;;;;4967420;28;20036;-91
2022/05/17 10:54:43;;;;;;;3.90;1.27;;;35.20;42.80;;;;;;5066391;28;20100;-88
2022/05/17 10:57:32;;;;;;;4.00;2.25;;;34.60;43.10;;;;;;5081510;28;20052;-89
2022/05/17 11:00:31;;;;;;;1.83;0.93;;;33.90;43.40;;;;;;5049125;28;20036;-89
2022/05/17 11:03:18;;;;;;;2.80;1.05;;;33.60;43.70;;;;;;5040051;28;20028;-89
2022/05/17 11:19:23;;;;;;;3.35;1.08;;;32.20;44.80;;;;;;5081346;28;20486;-89
2022/05/17 11:22:36;;;;;;;4.18;1.08;;;32.00;45.00;;;;;;4998031;28;20381;-89
2022/05/17 11:25:44;;;;;;;2.75;1.00;;;31.80;45.40;;;;;;5037861;28;20036;-89
2022/05/17 11:28:33;;;;;;;2.33;0.93;;;31.60;45.50;;;;;;5020702;28;20029;-89
2022/05/17 16:26:13;;;;;;;5.85;1.10;;;25.20;53.00;;;;;;5751077;22;19921;-92
2022/05/17 16:28:40;;;;;;;1.45;0.82;;;25.20;53.10;;;;;;5043468;28;20120;-92
2022/05/17 16:31:08;;;;;;;1.75;0.73;;;25.20;52.90;;;;;;5055879;28;20006;-91
2022/05/17 16:33:34;;;;;;;1.48;0.80;;;25.10;52.90;;;;;;5050061;28;20024;-93
2022/05/17 16:36:00;;;;;;;2.13;0.80;;;25.20;53.50;;;;;;5026949;28;20021;-91
2022/05/17 16:38:27;;;;;;;1.55;0.70;;;25.20;53.70;;;;;;5035296;28;20115;-92
2022/05/17 16:40:53;;;;;;;3.08;0.55;;;25.20;53.70;;;;;;5044025;28;20022;-93
2022/05/17 16:43:19;;;;;;;1.80;0.80;;;25.20;53.90;;;;;;5017559;28;20024;-93
2022/05/17 16:45:46;;;;;;;2.70;0.88;;;25.20;53.50;;;;;;5023611;28;20090;-92
2022/05/17 16:48:13;;;;;;;2.20;0.77;;;25.20;53.60;;;;;;5045072;28;20028;-91
2022/05/17 16:50:52;;;;;;;2.10;0.60;;;25.20;53.70;;;;;;5024110;28;20117;-92
2022/05/17 16:53:18;;;;;;;4.70;0.90;;;25.20;53.20;;;;;;5036694;28;20029;-92
2022/05/17 16:55:44;;;;;;;3.20;0.75;;;25.20;53.80;;;;;;5036285;28;20021;-91
2022/05/17 16:58:11;;;;;;;6.00;0.80;;;25.20;53.60;;;;;;5018820;28;20017;-91
2022/05/17 17:00:41;;;;;;;2.45;0.80;;;25.20;53.80;;;;;;5021322;28;20026;-91
2022/05/17 17:03:13;;;;;;;2.35;0.70;;;25.20;53.90;;;;;;5032057;28;20424;-91
2022/05/17 17:05:42;;;;;;;2.53;0.90;;;25.20;54.00;;;;;;5045078;28;20029;-91
2022/05/17 17:08:09;;;;;;;2.85;0.70;;;25.20;54.10;;;;;;5024142;28;20032;-91
2022/05/17 17:10:35;;;;;;;0.95;0.85;;;25.20;54.10;;;;;;5028423;28;20672;-92
2022/05/17 17:13:02;;;;;;;3.40;0.80;;;25.20;54.20;;;;;;5016603;28;20021;-89
2022/05/17 17:15:29;;;;;;;2.55;0.70;;;25.10;54.10;;;;;;5034632;28;20018;-93
2022/05/17 17:17:57;;;;;;;3.67;0.65;;;25.10;53.80;;;;;;5048327;28;20033;-92
2022/05/17 17:20:24;;;;;;;1.20;0.80;;;25.20;54.20;;;;;;5032279;28;20052;-92
2022/05/17 17:22:50;;;;;;;2.97;0.98;;;25.20;54.30;;;;;;5040512;28;20021;-93
2022/05/17 17:25:17;;;;;;;1.88;0.73;;;25.20;54.40;;;;;;5033432;28;20032;-92
2022/05/17 17:27:47;;;;;;;1.85;0.60;;;25.20;54.40;;;;;;5022314;28;20025;-93
2022/05/17 17:30:13;;;;;;;1.63;1.00;;;25.20;54.60;;;;;;5021732;28;20052;-93
2022/05/17 17:38:14;;;;;;;2.63;1.17;;;24.90;55.00;;;;;;5072397;28;20136;-93
2022/05/17 17:40:40;;;;;;;3.78;1.48;;;24.80;55.20;;;;;;5039811;28;20029;-92
2022/05/17 17:43:08;;;;;;;4.80;3.30;;;24.70;55.30;;;;;;5033654;28;20221;-91
2022/05/17 17:45:35;;;;;;;3.78;1.63;;;24.60;55.60;;;;;;5035617;28;20076;-91
2022/05/17 17:48:01;;;;;;;5.15;1.45;;;24.50;55.90;;;;;;5055626;28;20029;-93
2022/05/17 17:50:27;;;;;;;3.33;1.90;;;24.40;56.10;;;;;;5026407;28;20138;-92
2022/05/17 17:52:57;;;;;;;3.53;1.85;;;24.30;56.30;;;;;;5026064;28;20117;-92
2022/05/17 17:55:23;;;;;;;9.40;1.88;;;24.20;56.50;;;;;;5017901;28;20036;-91
2022/05/17 17:57:50;;;;;;;5.72;1.70;;;24.10;56.70;;;;;;5028552;28;20461;-91
2022/05/17 18:00:16;;;;;;;5.35;1.80;;;24.10;57.00;;;;;;5033778;28;20044;-93
2022/05/17 18:02:44;;;;;;;2.53;1.50;;;24.00;57.20;;;;;;5032647;28;20099;-90
2022/05/17 18:05:11;;;;;;;4.15;1.77;;;24.00;57.50;;;;;;5025983;28;20017;-91
2022/05/17 18:07:37;;;;;;;5.03;1.60;;;23.90;57.60;;;;;;5043581;28;20091;-91
2022/05/17 18:10:05;;;;;;;2.72;1.48;;;23.90;57.80;;;;;;5033016;28;20029;-92
2022/05/17 18:12:31;;;;;;;4.30;1.60;;;23.90;58.00;;;;;;5038904;28;20029;-88
2022/05/17 18:14:59;;;;;;;4.38;1.88;;;23.80;58.00;;;;;;5041235;28;20047;-89
2022/05/17 18:17:35;;;;;;;2.75;1.80;;;23.80;58.20;;;;;;5055665;28;20444;-88
2022/05/17 18:20:03;;;;;;;3.67;1.73;;;23.80;58.40;;;;;;5076814;28;20115;-88
2022/05/17 18:22:29;;;;;;;11.02;1.67;;;23.70;58.30;;;;;;5045291;28;20021;-88
2022/05/17 18:24:54;;;;;;;3.97;1.65;;;23.70;58.30;;;;;;5046401;28;20021;-88
2022/05/17 18:27:20;;;;;;;4.28;1.70;;;23.60;58.40;;;;;;5052945;28;20101;-89
2022/05/17 18:29:48;;;;;;;4.28;1.73;;;23.60;58.50;;;;;;5034105;28;20514;-89
2022/05/17 18:32:36;;;;;;;3.67;1.48;;;23.50;58.60;;;;;;5034605;28;20310;-88
2022/05/17 18:35:04;;;;;;;2.20;1.35;;;23.40;58.60;;;;;;5034848;28;20021;-89
2022/05/17 18:37:32;;;;;;;3.45;1.77;;;23.30;58.70;;;;;;5043662;28;20030;-89
2022/05/17 18:39:59;;;;;;;3.00;1.60;;;23.20;58.80;;;;;;5015645;28;20077;-88
2022/05/17 18:42:25;;;;;;;3.03;1.85;;;23.20;58.90;;;;;;5046845;28;20393;-88
2022/05/17 18:44:52;;;;;;;6.32;1.83;;;23.10;59.10;;;;;;5020727;28;20020;-90
2022/05/17 18:47:23;;;;;;;4.70;1.67;;;23.00;59.20;;;;;;5027999;28;20029;-88
2022/05/17 18:49:51;;;;;;;8.98;1.90;;;22.90;59.20;;;;;;5015784;28;20033;-83
2022/05/17 18:52:31;;;;;;;3.63;1.52;;;22.90;59.40;;;;;;5027901;28;20028;-86
2022/05/17 18:55:00;;;;;;;4.22;1.73;;;22.80;59.60;;;;;;5035990;28;20015;-87
2022/05/17 18:57:27;;;;;;;6.10;2.10;;;22.70;59.90;;;;;;5058098;28;20599;-88
2022/05/17 18:59:53;;;;;;;5.03;1.77;;;22.60;59.90;;;;;;5030831;28;20730;-87
2022/05/17 19:02:19;;;;;;;2.95;1.60;;;22.60;60.20;;;;;;5021062;28;20029;-86
2022/05/17 19:04:45;;;;;;;5.80;1.85;;;22.50;60.30;;;;;;5030788;28;20175;-87
2022/05/17 19:15:28;;;;;;;4.35;1.63;;;22.20;60.70;;;;;;5025436;28;20492;-87
2022/05/17 19:17:55;;;;;;;4.20;1.80;;;22.20;60.80;;;;;;5010867;28;20039;-87
2022/05/17 19:20:27;;;;;;;7.60;1.80;;;22.10;61.00;;;;;;5040106;28;20049;-88
2022/05/17 19:22:57;;;;;;;3.88;2.10;;;22.00;61.10;;;;;;5014862;28;20036;-87
2022/05/17 19:25:23;;;;;;;3.50;2.30;;;22.00;61.40;;;;;;5041572;28;20099;-87
2022/05/17 19:27:49;;;;;;;4.30;1.90;;;22.00;61.40;;;;;;5022147;28;20112;-88
2022/05/17 19:30:14;;;;;;;5.28;2.13;;;22.00;61.40;;;;;;5011477;28;20033;-88
2022/05/17 19:32:41;;;;;;;5.43;2.10;;;21.90;61.40;;;;;;5019603;28;20036;-88
2022/05/17 19:35:16;;;;;;;3.70;1.98;;;21.90;61.50;;;;;;5020351;28;20053;-87
2022/05/17 19:40:34;;;;;;;3.28;2.00;;;21.70;61.70;;;;;;5037024;28;20035;-87
2022/05/17 19:43:00;;;;;;;4.20;1.85;;;21.70;61.70;;;;;;5013469;28;20112;-88
2022/05/17 19:45:26;;;;;;;4.65;2.38;;;21.60;61.80;;;;;;5015365;28;20068;-87
2022/05/17 19:47:56;;;;;;;5.65;2.05;;;21.60;62.00;;;;;;5028855;28;20116;-88
2022/05/17 19:50:28;;;;;;;5.50;2.33;;;21.50;62.10;;;;;;5024191;28;20040;-89
2022/05/17 19:52:55;;;;;;;6.90;2.10;;;21.50;62.20;;;;;;5023832;28;20029;-88
2022/05/17 19:55:21;;;;;;;5.40;2.05;;;21.50;62.20;;;;;;5013519;28;20076;-87
2022/05/17 19:57:47;;;;;;;6.07;2.00;;;21.50;62.40;;;;;;5025376;28;20039;-88
2022/05/17 20:00:17;;;;;;;2.90;2.35;;;21.40;62.40;;;;;;5031299;28;20037;-86
2022/05/17 20:02:43;;;;;;;2.63;1.77;;;21.40;62.60;;;;;;5035349;28;20028;-88
2022/05/17 20:05:09;;;;;;;6.00;2.38;;;21.30;62.70;;;;;;5042854;28;20021;-87
2022/05/17 20:07:35;;;;;;;6.75;1.90;;;21.30;62.80;;;;;;5043234;28;20102;-87